Time;durP1;ratioP1;P1;durP2;ratioP2;P2;SDS_P1;SDS_P2;PMS_P1;PMS_P2;Temp;Humidity;BMP_temperature;BMP_pressure;BME280_temperature;BME280_humidity;BME280_pressure;Samples;Min_cycle;Max_cycle;Signal;HPM_P1;HPM_P2
2022/01/12 00:04:07;;;;;;;397.43;148.17;;;-5.10;99.90;;;;;;10367191;28;20492;-79
2022/01/12 00:09:30;;;;;;;377.13;151.00;;;-5.10;99.90;;;;;;10367697;28;20210;-79
2022/01/12 00:14:53;;;;;;;369.73;153.27;;;-5.10;99.90;;;;;;10380726;28;20370;-79
2022/01/12 00:20:15;;;;;;;379.77;153.77;;;-5.10;99.90;;;;;;10367113;28;20287;-79
2022/01/12 00:25:59;;;;;;;353.23;147.57;;;-5.20;99.90;;;;;;10380431;28;20292;-79
2022/01/12 00:37:03;;;;;;;324.13;138.23;;;-5.10;99.90;;;;;;10394184;28;20208;-79
2022/01/12 00:42:27;;;;;;;331.33;138.50;;;-5.10;99.90;;;;;;10380481;28;20205;-79
2022/01/12 00:47:49;;;;;;;351.80;137.53;;;-5.20;99.90;;;;;;10351129;28;20277;-78
2022/01/12 00:53:12;;;;;;;336.03;137.40;;;-5.10;99.90;;;;;;10341284;28;20252;-79
2022/01/12 00:58:36;;;;;;;284.50;122.20;;;-5.20;99.90;;;;;;10361888;28;20218;-79
2022/01/12 01:03:57;;;;;;;316.50;127.33;;;-5.20;99.90;;;;;;10353088;28;20195;-80
2022/01/12 01:09:19;;;;;;;302.93;130.63;;;-5.20;99.90;;;;;;10402603;28;20496;-79
2022/01/12 01:15:04;;;;;;;315.43;128.97;;;-5.30;99.90;;;;;;10373499;28;20223;-79
2022/01/12 01:26:10;;;;;;;274.40;113.40;;;-5.30;99.90;;;;;;10362211;28;20205;-79
2022/01/12 01:31:34;;;;;;;270.90;113.33;;;-5.30;99.90;;;;;;10346373;28;20200;-79
2022/01/12 01:36:56;;;;;;;282.27;113.93;;;-5.30;99.90;;;;;;10348658;28;20557;-79
2022/01/12 01:42:28;;;;;;;265.87;113.60;;;-5.40;99.90;;;;;;10359512;28;20202;-79
2022/01/12 01:53:30;;;;;;;196.87;88.70;;;-5.30;99.90;;;;;;10384794;28;20538;-78
2022/01/12 01:58:55;;;;;;;192.47;83.83;;;-5.20;99.90;;;;;;10386158;28;20453;-79
2022/01/12 02:04:18;;;;;;;196.73;84.57;;;-5.10;99.90;;;;;;10371672;28;20449;-79
2022/01/12 02:09:41;;;;;;;198.43;82.67;;;-5.20;99.90;;;;;;10398988;28;20480;-79
2022/01/12 02:15:21;;;;;;;216.07;89.93;;;-5.10;99.90;;;;;;10405871;28;20197;-78
2022/01/12 02:50:38;;;;;;;175.60;73.27;;;-5.00;99.90;;;;;;10398223;28;20189;-79
2022/01/12 02:54:52;;;;;;;148.10;63.87;;;-5.00;99.90;;;;;;10369544;28;20546;-80
2022/01/12 03:00:20;;;;;;;159.60;67.37;;;-4.80;99.90;;;;;;10370042;28;20294;-80
2022/01/12 03:05:55;;;;;;;150.10;64.60;;;-4.80;99.90;;;;;;10396925;28;20488;-80
2022/01/12 03:11:19;;;;;;;143.00;62.20;;;-4.80;99.90;;;;;;10396378;28;20212;-79
2022/01/12 03:16:44;;;;;;;150.73;60.20;;;-4.70;99.90;;;;;;10395713;28;20234;-79
2022/01/12 03:22:13;;;;;;;133.57;57.77;;;-4.80;99.90;;;;;;10369229;28;20274;-80
2022/01/12 03:27:37;;;;;;;125.73;54.37;;;-4.70;99.90;;;;;;10350535;28;20192;-79
2022/01/12 03:33:31;;;;;;;119.70;52.03;;;-4.70;99.90;;;;;;10367314;28;20197;-80
2022/01/12 03:39:01;;;;;;;103.30;49.60;;;-4.60;99.90;;;;;;10395351;28;20224;-79
2022/01/12 03:44:25;;;;;;;125.03;54.37;;;-4.50;99.90;;;;;;10393695;28;20201;-79
2022/01/12 03:49:48;;;;;;;158.93;59.20;;;-4.50;99.90;;;;;;10327799;28;20546;-79
2022/01/12 03:55:10;;;;;;;127.37;53.33;;;-4.40;99.90;;;;;;10356530;28;20308;-80
2022/01/12 04:00:32;;;;;;;103.43;47.07;;;-4.30;99.90;;;;;;10395452;28;20236;-80
2022/01/12 04:11:18;;;;;;;90.77;47.57;;;-4.20;99.90;;;;;;10394727;28;20400;-80
2022/01/12 04:16:40;;;;;;;89.63;43.60;;;-4.20;99.90;;;;;;10381366;28;20194;-79
2022/01/12 04:23:16;;;;;;;102.70;46.87;;;-4.30;99.90;;;;;;10384648;28;20538;-79
2022/01/12 04:27:49;;;;;;;81.63;40.73;;;-4.30;99.90;;;;;;10395610;28;20431;-80
2022/01/12 04:33:11;;;;;;;77.30;39.10;;;-4.30;99.90;;;;;;10375519;28;20496;-80
2022/01/12 04:38:34;;;;;;;82.70;41.03;;;-4.30;99.90;;;;;;10402524;28;20228;-79
2022/01/12 04:43:57;;;;;;;140.33;55.63;;;-4.20;99.90;;;;;;10388716;28;20227;-79
2022/01/12 04:49:37;;;;;;;125.57;50.70;;;-4.20;99.90;;;;;;10334392;28;20226;-79
2022/01/12 04:54:59;;;;;;;97.40;43.77;;;-4.10;99.90;;;;;;10363951;28;20228;-79
2022/01/12 05:00:22;;;;;;;87.60;41.57;;;-4.00;99.90;;;;;;10388008;28;20252;-78
2022/01/12 05:17:11;;;;;;;118.50;57.07;;;-3.70;99.90;;;;;;10415090;28;20189;-79
2022/01/12 05:22:33;;;;;;;105.70;49.73;;;-3.60;99.90;;;;;;10395942;28;20234;-79
2022/01/12 05:27:55;;;;;;;117.53;51.00;;;-3.60;99.90;;;;;;10362587;28;20220;-79
2022/01/12 05:33:20;;;;;;;131.73;53.13;;;-3.60;99.90;;;;;;10346032;28;20217;-80
2022/01/12 05:38:42;;;;;;;118.03;52.17;;;-3.60;99.90;;;;;;10345119;28;20234;-79
2022/01/12 05:44:07;;;;;;;143.67;63.27;;;-3.60;99.90;;;;;;10346082;28;20221;-78
2022/01/12 05:49:36;;;;;;;127.87;58.77;;;-3.60;99.90;;;;;;10361674;28;20577;-79
2022/01/12 05:55:05;;;;;;;122.57;52.73;;;-3.50;99.90;;;;;;10365580;28;20441;-79
2022/01/12 06:00:28;;;;;;;86.63;41.40;;;-3.40;99.90;;;;;;10385917;28;20488;-80
2022/01/12 06:05:54;;;;;;;93.67;44.33;;;-3.40;99.90;;;;;;10399130;28;20197;-79
2022/01/12 06:11:16;;;;;;;117.47;54.87;;;-3.30;99.90;;;;;;10371779;28;20229;-80
2022/01/12 06:16:41;;;;;;;160.10;69.80;;;-3.30;99.90;;;;;;10385368;28;20193;-79
2022/01/12 06:22:04;;;;;;;202.67;86.20;;;-3.20;99.90;;;;;;10397210;28;20260;-79
2022/01/12 06:27:29;;;;;;;110.10;55.13;;;-3.20;99.90;;;;;;10374006;28;20483;-80
2022/01/12 06:32:59;;;;;;;93.57;47.13;;;-3.10;99.90;;;;;;10344068;28;20203;-81
2022/01/12 06:38:22;;;;;;;99.80;48.07;;;-3.00;99.90;;;;;;10343664;28;20249;-79
2022/01/12 06:43:44;;;;;;;86.07;42.93;;;-3.00;99.90;;;;;;10356923;28;20202;-79
2022/01/12 06:49:07;;;;;;;81.07;40.70;;;-2.90;99.90;;;;;;10355620;28;20202;-79
2022/01/12 06:54:30;;;;;;;86.27;42.57;;;-2.80;99.90;;;;;;10361784;28;20237;-80
2022/01/12 06:59:52;;;;;;;88.47;41.13;;;-2.80;99.90;;;;;;10369618;28;20280;-80
2022/01/12 07:05:18;;;;;;;83.53;39.07;;;-2.70;99.90;;;;;;10370394;28;20245;-80
2022/01/12 07:10:42;;;;;;;108.07;48.87;;;-2.60;99.90;;;;;;10369509;28;20468;-80
2022/01/12 07:16:11;;;;;;;99.53;48.83;;;-2.60;99.90;;;;;;10382443;28;20195;-80
2022/01/12 07:21:34;;;;;;;103.53;50.23;;;-2.50;99.90;;;;;;10396148;28;20475;-80
2022/01/12 07:26:57;;;;;;;103.67;49.87;;;-2.50;99.90;;;;;;10353709;28;20214;-80
2022/01/12 07:32:19;;;;;;;106.17;50.73;;;-2.40;99.90;;;;;;10341150;28;20291;-80
2022/01/12 07:37:42;;;;;;;103.73;48.63;;;-2.40;99.90;;;;;;10371186;28;20509;-80
2022/01/12 07:43:05;;;;;;;116.93;68.37;;;-2.30;99.90;;;;;;10327481;28;20208;-80
2022/01/12 07:48:27;;;;;;;102.53;52.20;;;-2.30;99.90;;;;;;10348156;28;20222;-80
2022/01/12 07:53:49;;;;;;;93.53;45.60;;;-2.20;99.90;;;;;;10352688;28;20234;-79
2022/01/12 07:59:11;;;;;;;130.70;61.80;;;-2.20;99.90;;;;;;10381005;28;20227;-80
2022/01/12 08:04:34;;;;;;;115.50;58.93;;;-2.10;99.90;;;;;;10381197;28;20198;-80
2022/01/12 08:09:57;;;;;;;109.20;58.90;;;-2.00;99.90;;;;;;10380960;28;20244;-80
2022/01/12 08:15:20;;;;;;;109.97;58.83;;;-1.90;99.90;;;;;;10380629;28;20205;-80
2022/01/12 08:20:48;;;;;;;132.77;65.40;;;-1.90;99.90;;;;;;10342941;28;20557;-80
2022/01/12 08:26:10;;;;;;;121.63;56.63;;;-1.90;99.90;;;;;;10349884;28;20208;-78
2022/01/12 08:31:32;;;;;;;114.10;53.37;;;-1.80;99.90;;;;;;10349538;28;20202;-78
2022/01/12 08:36:55;;;;;;;118.50;55.33;;;-1.70;99.90;;;;;;10350893;28;20414;-78
2022/01/12 08:42:18;;;;;;;110.73;58.07;;;-1.70;99.90;;;;;;10390136;28;20252;-78
2022/01/12 08:47:40;;;;;;;107.50;55.07;;;-1.70;99.90;;;;;;10362705;28;20374;-78
2022/01/12 08:53:02;;;;;;;98.70;47.87;;;-1.60;99.90;;;;;;10372495;28;20615;-80
2022/01/12 08:58:24;;;;;;;95.37;48.53;;;-1.60;99.90;;;;;;10374933;28;20309;-81
2022/01/12 09:03:48;;;;;;;117.97;57.93;;;-1.50;99.90;;;;;;10375753;28;20257;-86
2022/01/12 09:09:11;;;;;;;191.00;76.00;;;-1.40;99.90;;;;;;10375790;28;20209;-79
2022/01/12 09:14:34;;;;;;;143.00;62.47;;;-1.30;99.90;;;;;;10377710;28;20278;-82
2022/01/12 09:19:56;;;;;;;110.63;51.67;;;-1.30;99.90;;;;;;10370921;28;20227;-80
2022/01/12 09:25:19;;;;;;;114.90;53.57;;;-1.20;99.90;;;;;;10314498;28;20198;-79
2022/01/12 09:30:41;;;;;;;122.13;55.57;;;-1.10;99.90;;;;;;10316709;28;20209;-80
2022/01/12 09:36:04;;;;;;;99.20;48.87;;;-0.80;99.90;;;;;;10314295;28;20203;-82
2022/01/12 09:41:27;;;;;;;108.67;51.90;;;-0.60;99.90;;;;;;10314600;28;20465;-82
2022/01/12 09:46:49;;;;;;;117.23;51.70;;;-0.60;99.90;;;;;;10336638;28;20255;-80
2022/01/12 09:52:13;;;;;;;94.93;46.53;;;-0.70;99.90;;;;;;10328503;28;20686;-80
2022/01/12 09:57:36;;;;;;;95.23;47.10;;;-0.70;99.90;;;;;;10314315;28;20226;-85
2022/01/12 10:03:05;;;;;;;131.57;55.03;;;-0.70;99.90;;;;;;10300488;28;20251;-85
2022/01/12 10:08:34;;;;;;;131.47;58.10;;;-0.60;99.90;;;;;;10334600;28;20267;-81
2022/01/12 10:13:58;;;;;;;119.17;55.23;;;-0.60;99.90;;;;;;10336459;28;20200;-79
2022/01/12 10:19:32;;;;;;;117.10;53.63;;;-0.60;99.90;;;;;;10332238;28;20317;-79
2022/01/12 10:24:54;;;;;;;111.43;54.70;;;-0.60;99.90;;;;;;10322214;28;20232;-82
2022/01/12 10:30:21;;;;;;;96.10;47.90;;;-0.60;99.90;;;;;;10353735;28;20224;-84
2022/01/12 10:35:43;;;;;;;95.97;45.57;;;-0.50;99.90;;;;;;10338649;28;20207;-82
2022/01/12 10:41:05;;;;;;;100.80;48.43;;;-0.50;99.90;;;;;;10351499;28;20235;-81
2022/01/12 10:46:29;;;;;;;109.47;51.53;;;-0.40;99.90;;;;;;10339801;28;20201;-79
2022/01/12 10:51:56;;;;;;;130.53;56.57;;;-0.40;99.90;;;;;;10351119;28;20254;-80
2022/01/12 10:57:36;;;;;;;124.07;54.27;;;-0.40;99.90;;;;;;10365020;28;20228;-81
2022/01/12 11:03:00;;;;;;;103.37;48.50;;;-0.50;99.90;;;;;;10336995;28;20263;-81
2022/01/12 11:08:25;;;;;;;100.07;45.77;;;-0.40;99.90;;;;;;10337697;28;20202;-80
2022/01/12 11:13:51;;;;;;;98.00;48.70;;;-0.30;99.90;;;;;;10349641;28;20288;-81
2022/01/12 11:19:15;;;;;;;105.80;51.67;;;-0.10;99.90;;;;;;10346215;28;20241;-81
2022/01/12 11:24:37;;;;;;;93.97;46.10;;;0.10;99.90;;;;;;10316125;28;20281;-78
2022/01/12 11:29:59;;;;;;;87.57;43.97;;;0.10;99.90;;;;;;10311068;28;20401;-79
2022/01/12 11:35:28;;;;;;;92.60;46.97;;;0.20;99.90;;;;;;10296225;28;20274;-81
2022/01/12 11:41:11;;;;;;;89.03;45.03;;;0.30;99.90;;;;;;10338986;28;20310;-82
2022/01/12 11:46:53;;;;;;;86.63;42.80;;;0.30;99.90;;;;;;10317186;28;20284;-78
2022/01/12 11:52:22;;;;;;;81.60;41.93;;;0.20;99.90;;;;;;10310233;28;20273;-80
2022/01/12 11:57:50;;;;;;;82.70;43.07;;;0.30;99.90;;;;;;10309139;28;20190;-78
2022/01/12 12:03:16;;;;;;;81.07;41.93;;;0.30;99.90;;;;;;10281953;28;20590;-78
2022/01/12 12:09:01;;;;;;;71.90;40.67;;;0.30;99.90;;;;;;10320459;28;20201;-80
2022/01/12 12:14:24;;;;;;;75.20;36.97;;;0.30;99.90;;;;;;10363374;28;20201;-79
2022/01/12 12:19:49;;;;;;;82.33;42.57;;;0.30;99.90;;;;;;10344241;28;20237;-81
2022/01/12 12:25:17;;;;;;;83.07;39.00;;;0.30;99.90;;;;;;10336343;28;20284;-80
2022/01/12 12:30:40;;;;;;;68.77;35.77;;;0.30;99.90;;;;;;10350365;28;20207;-83
2022/01/12 12:36:05;;;;;;;71.20;37.53;;;0.20;99.90;;;;;;10336288;28;20205;-85
2022/01/12 12:41:36;;;;;;;70.53;36.73;;;0.30;99.90;;;;;;10349275;28;20238;-85
2022/01/12 12:47:14;;;;;;;78.97;40.23;;;0.20;99.90;;;;;;10348786;28;20554;-79
2022/01/12 12:52:38;;;;;;;85.00;42.87;;;0.20;99.90;;;;;;10356530;28;20240;-91
2022/01/12 12:58:00;;;;;;;86.23;41.53;;;0.30;99.90;;;;;;10343985;28;20547;-84
2022/01/12 13:03:23;;;;;;;82.77;38.23;;;0.20;99.90;;;;;;10368882;28;20259;-81
2022/01/12 13:08:58;;;;;;;74.57;38.13;;;0.10;99.90;;;;;;10355347;28;20219;-80
2022/01/12 13:14:24;;;;;;;69.07;36.93;;;0.20;99.90;;;;;;10355809;28;20205;-80
2022/01/12 13:25:16;;;;;;;75.07;38.23;;;0.20;99.90;;;;;;10333646;28;20186;-80
2022/01/12 13:30:55;;;;;;;77.77;38.37;;;0.10;99.90;;;;;;10354292;28;20264;-79
2022/01/12 13:36:27;;;;;;;80.70;38.60;;;0.20;99.90;;;;;;10341129;28;20246;-80
2022/01/12 13:41:51;;;;;;;85.40;45.23;;;0.20;99.90;;;;;;10345810;28;20287;-80
2022/01/12 13:47:25;;;;;;;74.87;39.97;;;0.20;99.90;;;;;;10316552;28;20213;-84
2022/01/12 13:52:56;;;;;;;76.93;39.50;;;0.20;99.90;;;;;;10337073;28;20414;-80
2022/01/12 13:58:20;;;;;;;82.40;39.90;;;0.20;99.90;;;;;;10300639;28;20242;-79
2022/01/12 14:03:49;;;;;;;73.87;38.47;;;0.20;99.90;;;;;;10312233;28;20547;-80
2022/01/12 14:14:50;;;;;;;79.70;38.80;;;0.20;99.90;;;;;;10329225;28;20292;-81
2022/01/12 14:20:22;;;;;;;74.17;38.97;;;0.10;99.90;;;;;;10343740;28;20594;-84
2022/01/12 14:25:49;;;;;;;74.70;38.70;;;0.20;99.90;;;;;;10316638;28;20264;-80
2022/01/12 14:31:11;;;;;;;79.30;40.80;;;0.20;99.90;;;;;;10319523;28;20361;-79
2022/01/12 14:36:34;;;;;;;94.63;44.63;;;0.10;99.90;;;;;;10298972;28;20210;-80
2022/01/12 14:41:57;;;;;;;81.73;42.47;;;0.10;99.90;;;;;;10330843;28;20551;-79
2022/01/12 14:47:19;;;;;;;82.63;40.13;;;0.10;99.90;;;;;;10334258;28;20244;-83
2022/01/12 14:52:40;;;;;;;80.13;40.60;;;0.10;99.90;;;;;;10352232;28;20586;-83
2022/01/12 14:58:03;;;;;;;77.20;38.37;;;0.00;99.90;;;;;;10351751;28;20200;-82
2022/01/12 15:03:28;;;;;;;83.73;40.03;;;0.10;99.90;;;;;;10338454;28;20236;-83
2022/01/12 15:08:50;;;;;;;92.50;43.67;;;0.10;99.90;;;;;;10351496;28;20235;-81
2022/01/12 15:14:29;;;;;;;106.77;45.30;;;0.00;99.90;;;;;;10349616;28;20208;-80
2022/01/12 15:19:51;;;;;;;88.90;40.37;;;0.00;99.90;;;;;;10349694;28;20458;-81
2022/01/12 15:25:16;;;;;;;88.80;40.27;;;0.10;99.90;;;;;;10336694;28;20508;-79
2022/01/12 15:30:41;;;;;;;81.73;40.17;;;0.10;99.90;;;;;;10350521;28;20511;-80
2022/01/12 15:36:04;;;;;;;87.80;42.00;;;0.10;99.90;;;;;;10336598;28;20293;-80
2022/01/12 15:41:26;;;;;;;81.93;37.93;;;0.20;99.90;;;;;;10336170;28;20276;-78
2022/01/12 15:46:49;;;;;;;83.13;39.30;;;0.20;99.90;;;;;;10326741;28;20202;-79
2022/01/12 15:52:10;;;;;;;97.10;42.43;;;0.20;99.90;;;;;;10336268;28;20402;-83
2022/01/12 15:57:33;;;;;;;92.97;39.53;;;0.20;99.90;;;;;;10322577;28;20193;-83
2022/01/12 16:02:55;;;;;;;90.77;38.23;;;0.30;99.90;;;;;;10343835;28;20308;-79
2022/01/12 16:08:17;;;;;;;80.03;36.27;;;0.30;99.90;;;;;;10329403;28;20511;-87
2022/01/12 16:13:40;;;;;;;75.60;34.43;;;0.30;99.90;;;;;;10328861;28;20200;-81
2022/01/12 16:19:25;;;;;;;69.83;31.73;;;0.40;99.90;;;;;;10330566;28;20296;-80
2022/01/12 16:24:48;;;;;;;62.20;32.07;;;0.40;99.90;;;;;;10330091;28;20208;-81
2022/01/12 16:30:14;;;;;;;65.70;30.90;;;0.50;99.90;;;;;;10347141;28;20200;-81
2022/01/12 16:35:37;;;;;;;65.77;30.23;;;0.50;99.90;;;;;;10358708;28;20495;-80
2022/01/12 16:41:02;;;;;;;58.20;26.30;;;0.50;99.90;;;;;;10344685;28;20607;-80
2022/01/12 16:46:25;;;;;;;48.87;24.20;;;0.70;99.90;;;;;;10360497;28;20200;-80
2022/01/12 16:51:52;;;;;;;46.23;22.53;;;0.70;99.90;;;;;;10361162;28;20213;-82
2022/01/12 16:57:16;;;;;;;55.13;24.20;;;0.70;99.90;;;;;;10360671;28;20267;-81
2022/01/12 17:02:37;;;;;;;41.90;20.13;;;0.80;99.90;;;;;;10333905;28;20229;-83
2022/01/12 17:08:00;;;;;;;49.23;23.63;;;0.80;99.90;;;;;;10333480;28;20236;-83
2022/01/12 17:13:22;;;;;;;43.80;23.17;;;0.90;99.90;;;;;;10360878;28;20216;-82
2022/01/12 17:19:11;;;;;;;41.20;19.03;;;1.00;99.90;;;;;;10361776;28;20195;-81
2022/01/12 17:24:45;;;;;;;38.40;18.70;;;1.00;99.90;;;;;;10333142;28;20205;-82
2022/01/12 17:30:09;;;;;;;35.37;19.30;;;1.10;99.90;;;;;;10306222;28;20382;-80
2022/01/12 17:35:32;;;;;;;44.47;18.90;;;1.10;99.90;;;;;;10319342;28;20222;-80
2022/01/12 17:40:54;;;;;;;40.83;18.83;;;1.00;99.90;;;;;;10344705;28;20237;-80
2022/01/12 17:46:16;;;;;;;38.10;18.23;;;1.00;99.90;;;;;;10345022;28;20504;-82
2022/01/12 17:51:40;;;;;;;36.33;17.97;;;1.00;99.90;;;;;;10358767;28;20244;-81
2022/01/12 17:57:02;;;;;;;35.77;17.30;;;1.10;99.90;;;;;;10358572;28;20256;-80
2022/01/12 18:02:25;;;;;;;32.07;15.80;;;1.20;99.90;;;;;;10345099;28;20538;-81
2022/01/12 18:07:48;;;;;;;37.03;16.37;;;1.20;99.90;;;;;;10357995;28;20194;-79
2022/01/12 18:13:09;;;;;;;37.50;17.93;;;1.20;99.90;;;;;;10358157;28;20389;-82
2022/01/12 18:18:32;;;;;;;35.00;17.07;;;1.10;99.90;;;;;;10344519;28;20207;-81
2022/01/12 18:23:54;;;;;;;35.47;16.30;;;1.10;99.90;;;;;;10357963;28;20231;-82
2022/01/12 18:29:17;;;;;;;39.70;18.07;;;1.10;99.90;;;;;;10344229;28;20201;-83
2022/01/12 18:34:38;;;;;;;38.40;16.03;;;1.10;99.90;;;;;;10357371;28;20203;-83
2022/01/12 18:40:01;;;;;;;44.10;17.93;;;1.20;99.90;;;;;;10357958;28;20225;-81
2022/01/12 18:45:23;;;;;;;39.97;16.93;;;1.10;99.90;;;;;;10343819;28;20193;-81
2022/01/12 18:50:46;;;;;;;38.47;16.40;;;1.10;99.90;;;;;;10343793;28;20482;-82
2022/01/12 18:56:08;;;;;;;32.20;15.13;;;1.10;99.90;;;;;;10343221;28;20405;-79
2022/01/12 19:01:30;;;;;;;37.47;16.13;;;1.10;99.90;;;;;;10343150;28;20221;-79
2022/01/12 19:06:53;;;;;;;50.57;23.27;;;1.10;99.90;;;;;;10355954;28;20214;-79
2022/01/12 19:12:18;;;;;;;44.97;19.80;;;1.10;99.90;;;;;;10356182;28;20512;-80
2022/01/12 19:17:41;;;;;;;69.77;28.63;;;1.10;99.90;;;;;;10342223;28;20206;-81
2022/01/12 19:23:02;;;;;;;64.57;26.07;;;1.10;99.90;;;;;;10343746;28;20300;-81
2022/01/12 19:28:25;;;;;;;66.70;28.03;;;1.10;99.90;;;;;;10355686;28;20501;-80
2022/01/12 19:33:50;;;;;;;43.20;21.23;;;1.10;99.90;;;;;;10341661;28;20228;-80
2022/01/12 19:39:12;;;;;;;44.80;21.90;;;1.10;99.90;;;;;;10341500;28;20260;-82
2022/01/12 19:44:36;;;;;;;35.57;16.33;;;1.10;99.90;;;;;;10339154;28;20279;-81
2022/01/12 19:49:58;;;;;;;51.70;22.83;;;1.20;99.90;;;;;;10315556;28;20262;-81
2022/01/12 19:55:47;;;;;;;46.50;20.27;;;1.10;99.90;;;;;;10347096;28;20230;-81
2022/01/12 20:01:32;;;;;;;39.20;16.70;;;1.10;99.90;;;;;;10353982;28;20527;-81
2022/01/12 20:06:54;;;;;;;32.57;16.37;;;1.20;99.90;;;;;;10340699;28;20202;-81
2022/01/12 20:12:17;;;;;;;35.80;16.90;;;1.20;99.90;;;;;;10354511;28;20372;-81
2022/01/12 20:17:52;;;;;;;30.50;15.80;;;1.10;99.90;;;;;;10354659;28;20384;-81
2022/01/12 20:23:45;;;;;;;34.93;15.60;;;1.10;99.90;;;;;;10339867;28;20233;-81
2022/01/12 20:29:07;;;;;;;29.77;15.40;;;1.10;99.90;;;;;;10354415;28;20204;-80
2022/01/12 20:34:31;;;;;;;30.97;14.77;;;1.20;99.90;;;;;;10340267;28;20198;-80
2022/01/12 20:39:53;;;;;;;25.47;13.57;;;1.10;99.90;;;;;;10353906;28;20210;-81
2022/01/12 20:45:16;;;;;;;25.83;13.17;;;1.40;99.90;;;;;;10353589;28;20198;-80
2022/01/12 20:50:42;;;;;;;28.03;13.13;;;1.20;99.90;;;;;;10326464;28;20538;-81
2022/01/12 20:56:04;;;;;;;21.00;11.50;;;1.20;99.90;;;;;;10339920;28;20268;-81
2022/01/12 21:01:26;;;;;;;20.50;10.47;;;1.20;99.90;;;;;;10353356;28;20292;-82
2022/01/12 21:06:48;;;;;;;20.93;10.70;;;1.20;99.90;;;;;;10339966;28;20213;-81
2022/01/12 21:12:11;;;;;;;16.77;9.40;;;1.20;99.90;;;;;;10359824;28;20190;-81
2022/01/12 21:17:33;;;;;;;18.53;10.27;;;1.20;99.90;;;;;;10360504;28;20248;-81
2022/01/12 21:22:55;;;;;;;17.83;9.40;;;1.20;99.90;;;;;;10359917;28;20234;-81
2022/01/12 21:28:17;;;;;;;17.87;9.47;;;1.20;99.90;;;;;;10374460;28;20190;-81
2022/01/12 21:33:39;;;;;;;15.63;9.47;;;1.20;99.90;;;;;;10360116;28;20281;-81
2022/01/12 21:39:09;;;;;;;11.97;7.90;;;1.20;99.90;;;;;;10346269;28;20519;-81
2022/01/12 21:44:31;;;;;;;10.67;6.87;;;1.20;99.90;;;;;;10359358;28;20291;-81
2022/01/12 21:49:55;;;;;;;10.63;6.40;;;1.10;99.90;;;;;;10346216;28;20273;-81
2022/01/12 21:55:17;;;;;;;10.67;6.70;;;1.20;99.90;;;;;;10345931;28;20259;-81
2022/01/12 22:00:39;;;;;;;8.67;5.40;;;1.20;99.90;;;;;;10358506;28;20217;-81
2022/01/12 22:06:04;;;;;;;9.37;5.43;;;1.30;99.90;;;;;;10345210;28;20244;-81
2022/01/12 22:11:27;;;;;;;8.40;5.63;;;;;;;;;;10358642;28;20566;-81
2022/01/12 22:16:50;;;;;;;9.63;5.07;;;1.30;99.90;;;;;;10344880;28;20208;-82
2022/01/12 22:22:16;;;;;;;8.80;5.53;;;1.30;99.90;;;;;;10357388;28;20234;-81
2022/01/12 22:27:38;;;;;;;10.03;4.33;;;1.40;99.90;;;;;;10358022;28;20194;-81
2022/01/12 22:33:00;;;;;;;7.77;5.07;;;1.30;99.90;;;;;;10357794;28;20206;-81
2022/01/12 22:38:22;;;;;;;6.40;4.13;;;1.40;99.90;;;;;;10357558;28;20389;-82
2022/01/12 22:43:44;;;;;;;9.83;4.90;;;1.50;99.90;;;;;;10358356;28;20289;-81
2022/01/12 22:49:06;;;;;;;5.90;3.83;;;1.50;99.90;;;;;;10357049;28;20201;-79
2022/01/12 22:54:28;;;;;;;5.90;3.80;;;1.60;99.90;;;;;;10358199;28;20230;-80
2022/01/12 22:59:50;;;;;;;6.40;3.83;;;1.60;99.90;;;;;;10356694;28;20202;-79
2022/01/12 23:05:27;;;;;;;5.50;4.47;;;1.70;99.90;;;;;;10344794;28;20504;-79
2022/01/12 23:10:49;;;;;;;8.87;4.97;;;1.70;99.90;;;;;;10356603;28;20221;-79
2022/01/12 23:16:29;;;;;;;9.77;4.30;;;1.70;99.90;;;;;;10358944;28;20185;-79
2022/01/12 23:21:53;;;;;;;6.07;4.10;;;1.70;99.90;;;;;;10355426;28;20230;-79
2022/01/12 23:27:16;;;;;;;7.83;3.73;;;1.70;99.90;;;;;;10341775;28;20217;-79
2022/01/12 23:32:38;;;;;;;8.43;4.63;;;1.70;99.90;;;;;;10354990;28;20501;-79
2022/01/12 23:49:17;;;;;;;7.23;4.87;;;1.80;99.90;;;;;;10309618;28;20198;-79
